Time;durP1;ratioP1;P1;durP2;ratioP2;P2;SDS_P1;SDS_P2;PMS_P1;PMS_P2;Temp;Humidity;BMP_temperature;BMP_pressure;BME280_temperature;BME280_humidity;BME280_pressure;Samples;Min_cycle;Max_cycle;Signal;HPM_P1;HPM_P2
2021/05/13 00:00:08;;;;;;;6.70;1.42;;;;;;;15.92;43.61;99677.12;1737440;81;25707;-76
2021/05/13 00:02:40;;;;;;;5.30;1.62;;;;;;;15.86;43.65;99674.05;1688485;81;26247;-75
2021/05/13 00:05:08;;;;;;;6.05;1.77;;;;;;;15.81;43.75;99675.30;1675077;83;25884;-76
2021/05/13 00:07:36;;;;;;;6.22;1.50;;;;;;;15.79;43.85;99676.89;1711653;82;25659;-76
2021/05/13 00:10:07;;;;;;;8.15;1.80;;;;;;;15.78;43.90;99672.54;1714797;82;26406;-75
2021/05/13 00:15:10;;;;;;;7.58;1.70;;;;;;;15.74;44.31;99673.30;1675926;82;27741;-76
2021/05/13 00:17:37;;;;;;;4.30;2.10;;;;;;;15.70;44.19;99670.24;1723408;81;25774;-76
2021/05/13 00:20:14;;;;;;;8.18;2.60;;;;;;;15.71;44.30;99672.42;1748183;80;25660;-75
2021/05/13 00:22:41;;;;;;;4.78;2.85;;;;;;;15.69;44.35;99666.44;1632730;81;26096;-77
2021/05/13 00:25:10;;;;;;;5.60;1.70;;;;;;;15.64;44.43;99673.09;1692432;80;26380;-75
2021/05/13 00:27:37;;;;;;;6.22;1.70;;;;;;;15.59;44.57;99666.27;1716208;81;27399;-76
2021/05/13 00:30:06;;;;;;;2.65;1.77;;;;;;;15.54;44.77;99663.45;1747076;80;25684;-76
2021/05/13 00:32:39;;;;;;;6.30;1.70;;;;;;;15.51;44.85;99672.02;1647634;81;26319;-76
2021/05/13 00:35:14;;;;;;;4.50;1.45;;;;;;;15.47;45.05;99670.34;1689556;83;25637;-77
2021/05/13 00:37:42;;;;;;;4.37;1.85;;;;;;;15.37;45.20;99672.30;1744903;80;25675;-76
2021/05/13 00:40:12;;;;;;;3.33;1.47;;;;;;;15.29;45.41;99674.01;1736155;80;27475;-77
2021/05/13 00:42:39;;;;;;;3.08;1.45;;;;;;;15.24;45.45;99675.28;1683269;81;25758;-76
2021/05/13 00:45:10;;;;;;;9.45;1.65;;;;;;;15.21;45.65;99678.96;1697102;81;25564;-76
2021/05/13 00:47:44;;;;;;;4.08;1.30;;;;;;;15.16;45.70;99666.73;1726042;81;26402;-76
2021/05/13 00:50:07;;;;;;;8.03;2.08;;;;;;;15.11;45.97;99671.50;1754399;80;25897;-75
2021/05/13 00:52:34;;;;;;;3.67;2.12;;;;;;;15.06;46.28;99667.34;1645541;84;27631;-76
2021/05/13 00:55:02;;;;;;;5.40;1.50;;;;;;;14.99;46.17;99672.03;1693476;82;25761;-76
2021/05/13 00:57:29;;;;;;;3.92;1.52;;;;;;;14.95;46.30;99663.33;1712754;82;25690;-76
2021/05/13 01:00:01;;;;;;;4.25;1.85;;;;;;;14.92;46.56;99659.75;1717443;81;25660;-76
2021/05/13 01:02:25;;;;;;;5.37;1.65;;;;;;;14.87;46.48;99660.98;1661811;83;25853;-76
2021/05/13 01:04:52;;;;;;;6.62;1.75;;;;;;;14.83;46.76;99657.12;1715431;81;27251;-76
2021/05/13 01:07:19;;;;;;;6.50;1.55;;;;;;;14.80;46.86;99654.36;1719556;82;25589;-76
2021/05/13 01:09:46;;;;;;;5.95;1.50;;;;;;;14.74;46.81;99655.84;1715965;82;25673;-76
2021/05/13 01:12:17;;;;;;;3.35;1.85;;;;;;;14.71;47.22;99653.11;1686459;84;25676;-75
2021/05/13 01:14:45;;;;;;;5.37;1.55;;;;;;;14.62;47.43;99648.61;1670995;84;26004;-75
2021/05/13 01:17:18;;;;;;;7.47;1.67;;;;;;;14.57;47.73;99645.78;1710851;82;27421;-76
2021/05/13 01:19:47;;;;;;;4.67;1.45;;;;;;;14.55;47.73;99645.20;1709282;82;26348;-76
2021/05/13 01:22:17;;;;;;;6.40;2.20;;;;;;;14.52;47.86;99640.27;1641030;85;26437;-75
2021/05/13 01:24:45;;;;;;;6.08;1.80;;;;;;;14.47;47.96;99640.18;1639299;83;25832;-77
2021/05/13 01:27:12;;;;;;;4.60;1.42;;;;;;;14.44;48.12;99637.11;1699554;83;25701;-76
2021/05/13 01:29:47;;;;;;;2.75;1.30;;;;;;;14.40;48.37;99634.59;1623215;83;27533;-77
2021/05/13 01:32:16;;;;;;;3.05;1.37;;;;;;;14.39;48.35;99631.62;1653424;83;25775;-76
2021/05/13 01:34:44;;;;;;;2.77;1.32;;;;;;;14.37;48.29;99624.31;1689712;83;25468;-76
2021/05/13 01:37:12;;;;;;;2.30;1.32;;;;;;;14.36;48.44;99622.66;1669790;84;26044;-76
2021/05/13 01:39:39;;;;;;;6.05;1.70;;;;;;;14.34;48.37;99617.51;1637890;83;26380;-76
2021/05/13 01:42:06;;;;;;;5.97;1.67;;;;;;;14.35;48.55;99624.52;1659408;83;28009;-76
2021/05/13 01:44:33;;;;;;;4.30;1.60;;;;;;;14.31;48.64;99621.18;1675469;84;26352;-75
2021/05/13 01:47:00;;;;;;;4.37;1.60;;;;;;;14.24;48.85;99619.13;1694484;83;26334;-75
2021/05/13 01:49:28;;;;;;;1.57;1.30;;;;;;;14.17;49.09;99617.89;1648654;84;26001;-76
2021/05/13 01:51:55;;;;;;;3.33;1.37;;;;;;;14.12;49.10;99613.72;1641719;85;25791;-76
2021/05/13 01:54:22;;;;;;;5.90;1.98;;;;;;;14.09;49.11;99609.33;1683789;84;27128;-76
2021/05/13 01:56:49;;;;;;;8.68;2.30;;;;;;;14.05;49.42;99612.20;1660341;84;25729;-76
2021/05/13 01:59:16;;;;;;;4.45;1.92;;;;;;;14.00;49.35;99612.07;1621744;85;25731;-76
2021/05/13 02:01:43;;;;;;;8.40;2.33;;;;;;;14.00;49.62;99610.20;1659756;84;26046;-77
2021/05/13 02:04:10;;;;;;;3.72;2.08;;;;;;;13.97;49.60;99605.79;1686803;83;25900;-76
2021/05/13 02:06:37;;;;;;;3.37;1.72;;;;;;;13.94;49.64;99603.86;1661382;84;27080;-76
2021/05/13 02:09:05;;;;;;;4.62;1.82;;;;;;;13.91;49.71;99594.92;1641133;85;25711;-76
2021/05/13 02:11:32;;;;;;;3.95;2.00;;;;;;;13.88;49.75;99590.50;1669759;83;25797;-75
2021/05/13 02:13:59;;;;;;;4.30;1.72;;;;;;;13.87;49.92;99592.41;1685484;83;26144;-76
2021/05/13 02:16:26;;;;;;;2.80;1.65;;;;;;;13.82;50.01;99587.41;1664957;83;25815;-76
2021/05/13 02:18:53;;;;;;;7.10;1.72;;;;;;;13.78;50.14;99579.50;1637329;83;27414;-75
2021/05/13 02:21:20;;;;;;;3.42;1.30;;;;;;;13.72;50.23;99580.43;1677426;81;26083;-76
2021/05/13 02:23:47;;;;;;;4.45;1.75;;;;;;;13.66;50.46;99582.70;1733418;80;25280;-75
2021/05/13 02:26:18;;;;;;;2.35;1.52;;;;;;;13.60;50.51;99572.33;1670656;83;25596;-76
2021/05/13 02:28:43;;;;;;;2.60;1.60;;;;;;;13.57;50.67;99567.94;1672239;82;26014;-76
2021/05/13 02:31:10;;;;;;;2.17;1.30;;;;;;;13.51;50.63;99572.91;1708879;81;27453;-75
2021/05/13 02:33:37;;;;;;;2.50;1.75;;;;;;;13.49;50.78;99570.45;1715989;82;25665;-75
2021/05/13 02:36:05;;;;;;;2.42;1.22;;;;;;;13.49;50.97;99570.45;1697552;81;25641;-76
2021/05/13 02:38:33;;;;;;;2.83;1.30;;;;;;;13.45;50.98;99571.94;1683419;83;26503;-77
2021/05/13 02:41:00;;;;;;;5.08;1.90;;;;;;;13.42;51.00;99564.34;1685283;81;25759;-76
2021/05/13 02:43:27;;;;;;;4.03;1.40;;;;;;;13.37;51.10;99562.86;1706376;81;27585;-76
2021/05/13 02:45:54;;;;;;;4.22;1.55;;;;;;;13.32;51.19;99557.37;1712880;82;25626;-76
2021/05/13 02:48:21;;;;;;;5.83;1.60;;;;;;;13.27;51.30;99555.88;1678557;82;25559;-76
2021/05/13 02:50:48;;;;;;;3.02;1.17;;;;;;;13.21;51.32;99551.42;1682394;81;25889;-76
2021/05/13 02:53:15;;;;;;;2.75;1.40;;;;;;;13.21;51.59;99550.59;1750376;80;25765;-76
2021/05/13 02:55:42;;;;;;;2.55;1.65;;;;;;;13.16;51.60;99551.28;1681649;81;27440;-77
2021/05/13 02:58:09;;;;;;;4.17;1.40;;;;;;;13.14;51.73;99547.48;1699191;80;26302;-76
2021/05/13 03:00:49;;;;;;;4.47;1.52;;;;;;;13.10;51.77;99546.82;1640276;81;26487;-77
2021/05/13 03:03:05;;;;;;;5.15;1.35;;;;;;;13.02;51.95;99547.91;1746551;80;25778;-77
2021/05/13 03:05:32;;;;;;;3.90;1.92;;;;;;;12.98;52.21;99544.05;1720316;81;25774;-77
2021/05/13 03:08:02;;;;;;;2.40;1.52;;;;;;;13.00;52.34;99551.90;1697528;81;27493;-77
2021/05/13 03:10:43;;;;;;;1.80;1.35;;;;;;;13.00;52.41;99546.52;1726146;80;26142;-77
2021/05/13 03:13:04;;;;;;;3.33;1.60;;;;;;;12.99;52.40;99551.08;1738055;80;25659;-77
2021/05/13 03:15:31;;;;;;;7.87;2.02;;;;;;;12.98;52.50;99548.08;1716706;81;25685;-77
2021/05/13 03:17:58;;;;;;;2.83;1.27;;;;;;;12.99;52.80;99547.56;1673396;81;26322;-77
2021/05/13 03:20:33;;;;;;;2.85;1.57;;;;;;;12.97;52.58;99541.08;1651557;83;27412;-77
2021/05/13 03:22:57;;;;;;;3.15;1.65;;;;;;;12.96;52.65;99544.80;1670448;83;26023;-77
2021/05/13 03:25:32;;;;;;;5.17;1.67;;;;;;;12.98;52.74;99539.21;1700499;82;25930;-77
2021/05/13 03:28:09;;;;;;;3.22;1.30;;;;;;;12.96;52.75;99535.91;1676742;83;25998;-77
2021/05/13 03:30:43;;;;;;;4.30;2.08;;;;;;;12.97;52.77;99541.59;1688000;83;25796;-76
2021/05/13 03:33:11;;;;;;;6.58;1.60;;;;;;;12.96;52.97;99533.22;1738493;81;27945;-77
2021/05/13 03:35:38;;;;;;;3.77;1.32;;;;;;;12.96;52.73;99531.36;1699211;82;25798;-77
2021/05/13 03:38:07;;;;;;;2.40;1.40;;;;;;;12.99;52.91;99532.77;1678017;82;25771;-78
2021/05/13 03:40:35;;;;;;;4.05;1.70;;;;;;;13.00;53.00;99535.77;1704643;82;25806;-77
2021/05/13 03:43:03;;;;;;;5.33;1.50;;;;;;;13.01;52.80;99530.67;1710991;83;25617;-77
2021/05/13 03:45:31;;;;;;;1.22;1.12;;;;;;;13.05;52.93;99527.85;1699235;82;27348;-76
2021/05/13 03:48:02;;;;;;;3.30;1.50;;;;;;;13.07;53.05;99523.06;1708775;83;25903;-77
2021/05/13 03:50:27;;;;;;;4.25;2.00;;;;;;;13.13;52.96;99521.63;1714976;82;25770;-77
2021/05/13 03:52:54;;;;;;;3.70;1.40;;;;;;;13.31;52.87;99513.20;1708965;83;26066;-77
2021/05/13 03:55:21;;;;;;;3.10;1.25;;;;;;;13.53;52.91;99511.09;1690073;82;25590;-78
2021/05/13 03:57:50;;;;;;;5.17;1.40;;;;;;;13.73;52.75;99509.39;1640863;84;27448;-76
2021/05/13 04:00:18;;;;;;;2.27;1.10;;;;;;;13.80;52.24;99510.11;1679722;83;25631;-78
2021/05/13 04:02:45;;;;;;;3.20;1.25;;;;;;;13.81;52.18;99506.37;1716426;83;25591;-76
2021/05/13 04:05:13;;;;;;;3.10;2.58;;;;;;;13.80;51.90;99511.45;1685456;83;26953;-76
2021/05/13 04:07:40;;;;;;;3.45;1.85;;;;;;;13.73;51.93;99497.28;1708862;83;25779;-77
2021/05/13 04:10:09;;;;;;;4.60;1.27;;;;;;;13.72;51.94;99502.38;1691265;82;27514;-77
2021/05/13 04:12:39;;;;;;;4.53;1.12;;;;;;;13.72;52.08;99503.73;1714100;83;25840;-77
2021/05/13 04:15:09;;;;;;;1.47;1.30;;;;;;;13.70;52.21;99507.19;1679286;83;25726;-76
2021/05/13 04:17:37;;;;;;;3.47;1.10;;;;;;;13.71;52.10;99499.39;1690267;83;26111;-76
2021/05/13 04:20:06;;;;;;;3.92;1.15;;;;;;;13.72;52.27;99503.73;1711774;83;25777;-77
2021/05/13 04:22:34;;;;;;;3.77;1.07;;;;;;;13.72;52.19;99495.66;1715041;81;27513;-77
2021/05/13 04:25:04;;;;;;;1.87;1.37;;;;;;;13.69;52.34;99503.66;1722917;80;25707;-76
2021/05/13 04:27:31;;;;;;;5.58;1.30;;;;;;;13.71;52.44;99499.39;1663965;82;25700;-77
2021/05/13 04:29:58;;;;;;;3.50;1.25;;;;;;;13.75;52.44;99497.89;1674778;83;26476;-76
2021/05/13 04:32:25;;;;;;;4.17;1.40;;;;;;;13.80;52.32;99489.92;1716540;82;25961;-77
2021/05/13 04:34:52;;;;;;;4.00;1.62;;;;;;;13.87;52.12;99486.07;1687303;82;27278;-77
2021/05/13 04:37:19;;;;;;;1.65;1.12;;;;;;;13.92;52.13;99480.78;1650848;83;25628;-77
2021/05/13 04:39:46;;;;;;;4.65;1.65;;;;;;;13.97;51.93;99476.04;1688613;82;26026;-77
2021/05/13 04:42:13;;;;;;;5.55;1.50;;;;;;;14.00;52.08;99476.92;1708625;82;25776;-77
2021/05/13 04:44:40;;;;;;;5.22;1.60;;;;;;;14.02;51.89;99464.05;1684315;82;25875;-77
2021/05/13 04:47:30;;;;;;;4.53;1.50;;;;;;;14.04;51.90;99466.49;1645039;82;27576;-76
2021/05/13 04:49:39;;;;;;;6.00;1.70;;;;;;;14.09;51.94;99467.95;1692748;82;26318;-77
2021/05/13 04:52:06;;;;;;;9.63;1.65;;;;;;;14.13;51.77;99467.25;1697379;82;25702;-77
2021/05/13 04:54:33;;;;;;;3.30;1.60;;;;;;;14.18;51.89;99466.55;1687407;82;25647;-77
2021/05/13 04:57:01;;;;;;;4.92;1.62;;;;;;;14.24;51.74;99466.94;1647408;83;25801;-76
2021/05/13 04:59:28;;;;;;;3.30;1.80;;;;;;;14.31;51.70;99469.80;1687670;83;27602;-77
2021/05/13 05:01:55;;;;;;;5.25;1.85;;;;;;;14.37;51.62;99470.20;1689888;82;25798;-76
2021/05/13 05:04:22;;;;;;;8.33;1.85;;;;;;;14.44;51.20;99466.84;1689157;83;25698;-76
2021/05/13 05:06:49;;;;;;;4.80;1.57;;;;;;;14.51;51.18;99464.84;1665340;83;25993;-77
2021/05/13 05:09:16;;;;;;;3.42;2.12;;;;;;;14.59;51.21;99466.32;1709040;81;25603;-77
2021/05/13 05:11:43;;;;;;;3.50;1.62;;;;;;;14.66;51.24;99467.01;1707591;82;27945;-77
2021/05/13 05:14:10;;;;;;;2.62;1.85;;;;;;;14.72;51.09;99466.56;1658510;81;25942;-76
2021/05/13 05:16:37;;;;;;;7.00;1.65;;;;;;;14.77;50.93;99468.84;1681971;83;25717;-76
2021/05/13 05:19:04;;;;;;;8.15;2.15;;;;;;;14.82;50.97;99468.13;1721127;82;25751;-76
2021/05/13 05:21:31;;;;;;;6.03;1.95;;;;;;;14.91;51.02;99464.78;1714554;82;25775;-76
2021/05/13 05:23:58;;;;;;;5.20;1.92;;;;;;;14.99;51.09;99463.58;1697639;80;28273;-76
2021/05/13 05:26:25;;;;;;;3.25;2.05;;;;;;;15.06;50.82;99455.61;1654425;81;25796;-77
2021/05/13 05:28:52;;;;;;;7.00;1.77;;;;;;;15.13;50.43;99458.16;1749628;80;25681;-78
2021/05/13 05:31:19;;;;;;;5.55;1.87;;;;;;;15.18;50.20;99448.81;1709866;81;26014;-77
2021/05/13 05:33:47;;;;;;;6.28;2.77;;;;;;;15.21;49.48;99451.83;1657249;83;25826;-77
2021/05/13 05:36:14;;;;;;;2.40;2.02;;;;;;;15.23;49.96;99445.66;1648686;83;27387;-78
2021/05/13 05:38:41;;;;;;;4.97;1.35;;;;;;;15.28;49.70;99437.66;1723333;81;26426;-77
2021/05/13 05:41:08;;;;;;;6.22;2.22;;;;;;;15.27;49.53;99433.84;1717685;82;25859;-78
2021/05/13 05:43:35;;;;;;;6.65;1.80;;;;;;;15.33;49.98;99428.83;1669850;83;26107;-77
2021/05/13 05:46:02;;;;;;;5.42;1.60;;;;;;;15.48;50.26;99437.20;1694546;81;25762;-76
2021/05/13 05:48:29;;;;;;;3.50;1.75;;;;;;;15.55;49.67;99433.78;1740882;81;28078;-78
2021/05/13 05:50:56;;;;;;;7.05;1.67;;;;;;;15.61;49.99;99431.98;1730667;81;25629;-77
2021/05/13 05:53:23;;;;;;;4.08;1.45;;;;;;;15.69;49.52;99438.31;1659882;83;25663;-77
2021/05/13 05:55:50;;;;;;;8.45;1.72;;;;;;;15.75;49.76;99434.61;1670183;83;26471;-77
2021/05/13 05:58:17;;;;;;;3.22;1.50;;;;;;;15.83;49.31;99439.06;1721556;81;25662;-77
2021/05/13 06:00:44;;;;;;;7.47;1.92;;;;;;;15.91;49.28;99424.33;1714381;82;28313;-76
2021/05/13 06:03:11;;;;;;;9.00;1.80;;;;;;;15.98;49.31;99429.81;1677361;83;25742;-77
2021/05/13 06:05:38;;;;;;;5.92;1.77;;;;;;;16.07;49.51;99432.38;1677940;81;26289;-76
2021/05/13 06:08:05;;;;;;;9.55;1.67;;;;;;;16.15;49.26;99435.98;1718950;81;25753;-76
2021/05/13 06:10:33;;;;;;;9.80;2.05;;;;;;;16.25;49.25;99429.08;1735764;81;25682;-77
2021/05/13 06:13:00;;;;;;;8.63;1.80;;;;;;;16.37;49.40;99434.64;1664268;81;28378;-78
2021/05/13 06:15:27;;;;;;;5.20;1.77;;;;;;;16.44;48.98;99425.81;1706565;80;25743;-77
2021/05/13 06:17:54;;;;;;;8.08;2.30;;;;;;;16.51;48.90;99424.30;1725156;81;26436;-76
2021/05/13 06:20:26;;;;;;;4.92;2.45;;;;;;;16.55;48.59;99426.21;1716541;80;25713;-77
2021/05/13 06:22:53;;;;;;;12.73;5.47;;;;;;;16.65;49.08;99429.05;1681143;83;25697;-78
2021/05/13 06:25:21;;;;;;;20.43;9.75;;;;;;;16.70;48.41;99424.23;1669143;84;28074;-77
2021/05/13 06:27:49;;;;;;;19.45;8.80;;;;;;;16.72;48.48;99424.23;1743008;81;25561;-78
2021/05/13 06:30:19;;;;;;;10.40;5.03;;;;;;;16.79;48.23;99428.09;1719608;81;26148;-78
2021/05/13 06:32:47;;;;;;;10.75;4.15;;;;;;;16.81;48.77;99427.30;1683800;81;26039;-77
2021/05/13 06:35:18;;;;;;;7.55;2.77;;;;;;;16.90;48.60;99425.77;1664823;84;25694;-78
2021/05/13 06:37:46;;;;;;;7.87;3.87;;;;;;;17.02;49.15;99422.39;1729759;81;27393;-77
2021/05/13 06:40:15;;;;;;;9.68;3.40;;;;;;;17.17;49.19;99418.43;1718843;82;25758;-78
2021/05/13 06:42:43;;;;;;;13.43;2.33;;;;;;;17.31;49.01;99422.35;1701557;81;25666;-79
2021/05/13 06:45:13;;;;;;;5.33;2.02;;;;;;;17.39;48.01;99415.10;1688079;81;25685;-77
2021/05/13 06:47:40;;;;;;;7.55;2.15;;;;;;;17.44;47.89;99410.27;1724890;81;25917;-78
2021/05/13 06:50:08;;;;;;;9.80;1.92;;;;;;;17.53;47.80;99404.69;1728808;81;28096;-77
2021/05/13 06:52:36;;;;;;;10.70;2.33;;;;;;;17.62;47.46;99413.39;1711164;83;26134;-77
2021/05/13 06:55:05;;;;;;;8.45;2.25;;;;;;;17.67;47.53;99407.20;1677726;82;25869;-77
2021/05/13 06:57:32;;;;;;;9.78;2.83;;;;;;;17.76;47.35;99406.98;1733356;81;26379;-78
2021/05/13 06:59:59;;;;;;;9.90;2.08;;;;;;;17.84;47.64;99402.42;1733312;81;26040;-77
2021/05/13 07:02:26;;;;;;;12.23;2.47;;;;;;;17.93;47.15;99402.20;1660614;81;27520;-77
2021/05/13 07:04:53;;;;;;;10.35;4.85;;;;;;;18.00;46.53;99396.55;1679210;83;26419;-77
2021/05/13 07:07:21;;;;;;;5.92;2.33;;;;;;;18.06;47.24;99393.61;1727756;81;25786;-77
2021/05/13 07:09:48;;;;;;;11.53;2.17;;;;;;;18.14;47.08;99389.02;1737616;81;25763;-78
2021/05/13 07:12:14;;;;;;;5.42;2.10;;;;;;;18.24;46.60;99390.97;1706213;82;25827;-78
2021/05/13 07:14:41;;;;;;;13.48;1.98;;;;;;;18.31;46.71;99385.56;1662897;83;27450;-77
2021/05/13 07:17:09;;;;;;;6.65;2.00;;;;;;;18.36;46.68;99383.41;1731476;81;25775;-77
2021/05/13 07:19:36;;;;;;;9.75;2.42;;;;;;;18.38;46.45;99386.14;1738259;81;26502;-78
2021/05/13 07:22:03;;;;;;;6.53;2.37;;;;;;;18.45;46.09;99385.35;1660135;81;26167;-78
2021/05/13 07:24:30;;;;;;;6.25;2.20;;;;;;;18.53;45.95;99381.32;1681728;84;25699;-76
2021/05/13 07:26:57;;;;;;;11.43;2.33;;;;;;;18.60;45.83;99383.78;1730526;81;27343;-78
2021/05/13 07:29:24;;;;;;;11.33;3.65;;;;;;;18.65;45.70;99382.45;1725758;81;25854;-77
2021/05/13 07:31:51;;;;;;;6.25;2.08;;;;;;;18.72;46.43;99385.16;1677204;81;25745;-78
2021/05/13 07:34:18;;;;;;;8.10;2.02;;;;;;;18.81;46.54;99382.73;1668681;84;25779;-77
2021/05/13 07:36:45;;;;;;;10.80;2.58;;;;;;;18.92;45.78;99383.02;1716479;82;25711;-77
2021/05/13 07:39:12;;;;;;;8.70;2.15;;;;;;;18.96;44.53;99379.49;1721626;81;27211;-77
2021/05/13 07:41:39;;;;;;;7.25;2.35;;;;;;;18.96;44.70;99380.03;1691091;84;26041;-77
2021/05/13 07:44:07;;;;;;;9.13;2.58;;;;;;;18.98;44.92;99382.75;1666538;84;25745;-77
2021/05/13 07:46:37;;;;;;;5.95;1.82;;;;;;;19.02;44.58;99377.05;1716411;82;26029;-77
2021/05/13 07:49:03;;;;;;;9.18;1.85;;;;;;;19.05;44.35;99372.98;1690408;84;25881;-77
2021/05/13 07:51:30;;;;;;;6.83;1.87;;;;;;;19.04;44.70;99365.91;1661542;84;27658;-77
2021/05/13 07:53:57;;;;;;;11.75;2.22;;;;;;;19.10;45.32;99373.78;1679593;82;25737;-77
2021/05/13 07:56:24;;;;;;;10.40;1.87;;;;;;;19.19;45.43;99357.23;1720259;82;25779;-77
2021/05/13 07:58:51;;;;;;;5.55;2.00;;;;;;;19.32;45.37;99360.47;1705235;82;25774;-78
2021/05/13 08:01:18;;;;;;;8.93;1.72;;;;;;;19.33;43.87;99361.58;1690796;84;25704;-78
2021/05/13 08:03:45;;;;;;;4.87;1.45;;;;;;;19.37;45.04;99353.17;1677738;82;27434;-77
2021/05/13 08:06:12;;;;;;;6.10;1.57;;;;;;;19.45;44.13;99356.69;1692607;83;25668;-77
2021/05/13 08:08:39;;;;;;;10.40;2.08;;;;;;;19.49;43.55;99358.30;1718109;82;25654;-78
2021/05/13 08:11:07;;;;;;;8.68;1.17;;;;;;;19.56;43.48;99352.87;1685886;83;26381;-77
2021/05/13 08:13:34;;;;;;;6.85;1.40;;;;;;;19.57;43.40;99359.91;1656764;82;25800;-78
2021/05/13 08:16:01;;;;;;;3.37;1.40;;;;;;;19.57;41.98;99357.73;1717441;82;27387;-77
2021/05/13 08:18:28;;;;;;;10.48;1.90;;;;;;;19.57;42.62;99349.58;1689674;84;25336;-78
2021/05/13 08:20:55;;;;;;;3.55;1.20;;;;;;;19.65;42.78;99344.40;1676429;84;26165;-78
2021/05/13 08:23:22;;;;;;;3.67;1.22;;;;;;;19.70;42.96;99343.58;1646030;84;25710;-78
2021/05/13 08:25:49;;;;;;;2.92;1.32;;;;;;;19.75;42.96;99340.31;1683730;84;25775;-78
2021/05/13 08:28:16;;;;;;;4.72;1.77;;;;;;;19.84;43.23;99339.20;1672621;84;27587;-77
2021/05/13 08:30:43;;;;;;;8.03;1.40;;;;;;;19.88;41.77;99334.83;1646072;85;25852;-78
2021/05/13 08:33:10;;;;;;;4.30;1.95;;;;;;;19.88;41.59;99334.30;1687419;83;26510;-77
2021/05/13 08:35:37;;;;;;;4.97;1.30;;;;;;;19.87;41.58;99329.94;1617817;85;25727;-77
2021/05/13 08:38:04;;;;;;;5.80;1.40;;;;;;;19.92;41.21;99329.92;1653038;84;26560;-78
2021/05/13 08:40:31;;;;;;;4.83;2.60;;;;;;;19.95;40.98;99321.77;1648920;85;27602;-78
2021/05/13 08:42:59;;;;;;;4.95;1.60;;;;;;;19.97;40.52;99325.02;1665276;84;25726;-77
2021/05/13 08:45:33;;;;;;;5.08;1.45;;;;;;;20.03;40.91;99328.52;1669658;83;25276;-78
2021/05/13 08:48:01;;;;;;;3.27;1.10;;;;;;;20.08;40.49;99322.50;1639799;85;25787;-77
2021/05/13 08:50:29;;;;;;;3.92;1.17;;;;;;;20.09;40.33;99325.50;1647652;84;25768;-78
2021/05/13 08:52:56;;;;;;;3.95;1.40;;;;;;;20.16;40.40;99327.91;1689536;84;27432;-77
2021/05/13 08:55:23;;;;;;;7.95;1.40;;;;;;;20.24;40.48;99323.27;1668946;84;25717;-78
2021/05/13 08:57:50;;;;;;;4.40;1.00;;;;;;;20.32;40.29;99319.41;1642013;85;25658;-79
2021/05/13 09:00:18;;;;;;;3.08;1.52;;;;;;;20.36;40.12;99321.05;1727163;81;25671;-78
2021/05/13 09:02:52;;;;;;;3.80;1.10;;;;;;;20.39;39.90;99321.83;1723891;81;25740;-79
2021/05/13 09:05:19;;;;;;;3.72;1.17;;;;;;;20.36;39.56;99317.75;1678700;83;27358;-78
2021/05/13 09:07:46;;;;;;;5.08;1.02;;;;;;;20.40;40.12;99318.02;1665311;83;25728;-77
2021/05/13 09:10:16;;;;;;;3.85;1.10;;;;;;;20.47;39.76;99317.14;1651028;84;25673;-78
2021/05/13 09:12:50;;;;;;;4.45;1.60;;;;;;;20.52;39.50;99312.50;1709520;83;26182;-78
2021/05/13 09:15:22;;;;;;;8.95;2.62;;;;;;;20.59;40.29;99310.25;1669189;84;26536;-78
2021/05/13 09:17:54;;;;;;;4.78;1.47;;;;;;;20.63;39.18;99306.44;1663450;84;27986;-78
2021/05/13 09:20:37;;;;;;;6.87;1.57;;;;;;;20.69;40.13;99306.12;1660700;84;26469;-78
2021/05/13 09:23:17;;;;;;;5.15;1.10;;;;;;;20.78;40.20;99308.22;1684234;81;25788;-78
2021/05/13 09:25:46;;;;;;;;;;;;;;;20.85;38.93;99298.63;1711159;82;26330;-78
2021/05/13 09:28:13;;;;;;;3.83;1.22;;;;;;;20.85;40.00;99292.39;1717870;82;26403;-78
2021/05/13 09:30:40;;;;;;;6.22;1.50;;;;;;;20.86;38.81;99289.38;1710743;82;27400;-76
2021/05/13 09:33:08;;;;;;;2.40;1.37;;;;;;;20.88;39.01;99285.81;1720961;82;25610;-78
2021/05/13 09:35:37;;;;;;;4.30;1.12;;;;;;;20.94;38.86;99283.31;1664845;83;26352;-78
2021/05/13 09:38:09;;;;;;;5.33;0.98;;;;;;;20.96;38.53;99287.91;1689069;83;25820;-77
2021/05/13 09:40:52;;;;;;;8.98;1.20;;;;;;;20.97;38.80;99288.19;1691280;82;25863;-78
2021/05/13 09:43:25;;;;;;;4.22;1.10;;;;;;;21.00;39.29;99291.69;1720601;82;27014;-77
2021/05/13 09:45:55;;;;;;;7.30;1.70;;;;;;;20.94;39.88;99283.31;1667203;83;25711;-77
2021/05/13 09:48:44;;;;;;;6.25;1.52;;;;;;;20.95;39.23;99280.86;1691835;82;25831;-77
2021/05/13 09:51:26;;;;;;;6.03;1.40;;;;;;;20.99;38.48;99281.91;1694725;82;26037;-78
2021/05/13 09:54:16;;;;;;;5.17;3.33;;;;;;;21.08;37.29;99272.06;1723103;82;25952;-78
2021/05/13 09:56:46;;;;;;;6.40;1.55;;;;;;;21.13;37.49;99263.83;1679122;82;27347;-77
2021/05/13 09:59:38;;;;;;;2.45;1.00;;;;;;;21.13;36.93;99257.56;1721081;82;26576;-78
2021/05/13 10:02:07;;;;;;;2.72;1.10;;;;;;;21.10;37.73;99258.97;1714360;82;25599;-78
2021/05/13 10:04:34;;;;;;;6.12;2.60;;;;;;;21.15;37.50;99250.73;1723931;82;26213;-78
2021/05/13 10:07:01;;;;;;;1.37;1.00;;;;;;;21.28;36.21;99249.23;1665511;83;25647;-78
2021/05/13 10:09:28;;;;;;;3.12;1.70;;;;;;;21.32;35.22;99244.86;1692591;82;27414;-78
2021/05/13 10:11:58;;;;;;;2.02;1.02;;;;;;;21.34;35.18;99244.80;1703630;82;25661;-78
2021/05/13 10:14:28;;;;;;;4.45;1.02;;;;;;;21.39;35.98;99242.03;1720886;82;25252;-78
2021/05/13 10:17:03;;;;;;;2.30;1.00;;;;;;;21.46;35.50;99234.33;1666076;83;25757;-78
2021/05/13 10:19:45;;;;;;;2.27;0.90;;;;;;;21.52;35.31;99237.80;1715454;82;25843;-77
2021/05/13 10:22:15;;;;;;;1.40;0.78;;;;;;;21.63;34.95;99234.39;1707664;82;27504;-77
2021/05/13 10:24:44;;;;;;;8.15;1.07;;;;;;;21.68;34.94;99233.80;1724575;82;25713;-78
2021/05/13 10:27:17;;;;;;;2.90;0.85;;;;;;;21.69;34.19;99234.58;1673943;82;25730;-77
2021/05/13 10:29:45;;;;;;;2.70;0.95;;;;;;;21.68;33.18;99226.16;1689198;83;25648;-77
2021/05/13 10:34:57;;;;;;;1.32;0.80;;;;;;;21.79;34.06;99224.93;1722269;82;28034;-79
2021/05/13 10:37:36;;;;;;;2.62;1.00;;;;;;;21.83;34.89;99235.53;1678075;82;26112;-78
2021/05/13 10:40:24;;;;;;;2.20;1.10;;;;;;;21.84;33.52;99222.14;1697211;82;25680;-78
2021/05/13 10:43:06;;;;;;;7.53;1.00;;;;;;;21.86;34.46;99223.48;1741511;81;25570;-77
2021/05/13 10:45:37;;;;;;;6.10;1.17;;;;;;;21.89;33.43;99217.45;1692134;82;26127;-77
2021/05/13 10:48:18;;;;;;;3.58;0.90;;;;;;;21.93;34.14;99215.76;1675810;83;27631;-76
2021/05/13 10:50:55;;;;;;;4.22;1.02;;;;;;;21.97;33.77;99211.88;1715705;82;25723;-77
2021/05/13 10:53:48;;;;;;;1.12;0.80;;;;;;;22.01;33.42;99205.55;1697109;82;25651;-78
2021/05/13 10:56:29;;;;;;;2.90;1.12;;;;;;;22.06;33.76;99208.20;1718641;82;26138;-76
2021/05/13 10:59:10;;;;;;;8.58;1.10;;;;;;;22.10;33.58;99205.69;1678739;82;25532;-77
2021/05/13 11:01:52;;;;;;;6.72;1.00;;;;;;;22.11;34.21;99212.20;1728301;81;26803;-77
2021/05/13 11:04:29;;;;;;;1.52;0.80;;;;;;;22.17;33.51;99204.23;1693041;82;26365;-77
2021/05/13 11:07:02;;;;;;;6.80;1.80;;;;;;;22.27;32.50;99197.79;1728901;81;25639;-78
2021/05/13 11:09:45;;;;;;;3.02;1.00;;;;;;;22.28;32.92;99204.06;1685642;83;25696;-77
2021/05/13 11:12:17;;;;;;;5.08;0.75;;;;;;;22.32;33.34;99199.09;1730318;81;25771;-77
2021/05/13 11:15:16;;;;;;;8.08;1.75;;;;;;;22.40;32.50;99198.95;1713929;81;27403;-77
2021/05/13 11:17:52;;;;;;;5.45;2.00;;;;;;;22.43;32.34;99190.19;1765134;80;25629;-76
2021/05/13 11:20:26;;;;;;;3.12;0.93;;;;;;;22.42;31.25;99197.55;1720984;81;25830;-78
2021/05/13 11:23:04;;;;;;;7.67;0.70;;;;;;;22.45;32.05;99194.78;1735233;81;26109;-78
2021/05/13 11:25:52;;;;;;;2.30;0.72;;;;;;;22.50;31.22;99190.05;1692961;83;25721;-77
2021/05/13 11:28:38;;;;;;;4.95;1.05;;;;;;;22.47;31.37;99180.28;1731230;81;26924;-77
2021/05/13 11:31:14;;;;;;;0.85;0.80;;;;;;;22.42;31.94;99170.81;1660503;81;25797;-77
2021/05/13 11:33:54;;;;;;;3.37;1.05;;;;;;;22.50;32.16;99169.58;1759849;80;25953;-77
2021/05/13 11:36:28;;;;;;;4.90;0.78;;;;;;;22.50;31.87;99172.30;1706628;81;26311;-78
2021/05/13 11:39:07;;;;;;;2.75;1.00;;;;;;;22.57;31.91;99171.92;1744936;80;25790;-77
2021/05/13 11:41:32;;;;;;;2.05;1.00;;;;;;;22.64;31.72;99171.02;1691960;83;28004;-78
2021/05/13 11:43:59;;;;;;;3.70;0.93;;;;;;;22.70;32.01;99168.45;1666961;81;25758;-78
2021/05/13 11:46:29;;;;;;;3.02;0.68;;;;;;;22.74;31.64;99170.28;1702927;81;25644;-77
2021/05/13 11:48:57;;;;;;;3.60;0.90;;;;;;;22.77;32.20;99166.14;1731803;81;26453;-77